Time;durP1;ratioP1;P1;durP2;ratioP2;P2;SDS_P1;SDS_P2;PMS_P1;PMS_P2;Temp;Humidity;BMP_temperature;BMP_pressure;BME280_temperature;BME280_humidity;BME280_pressure;Samples;Min_cycle;Max_cycle;Signal;HPM_P1;HPM_P2
2023/05/09 00:02:00;;;;;;;23.20;16.73;;;14.40;99.90;;;;;;5016299;28;20204;-77
2023/05/09 00:04:29;;;;;;;29.30;19.23;;;14.40;99.90;;;;;;5016384;28;20200;-76
2023/05/09 00:06:55;;;;;;;29.17;18.48;;;14.40;99.90;;;;;;5015715;28;20223;-77
2023/05/09 00:09:22;;;;;;;30.55;19.27;;;14.30;99.90;;;;;;5015481;28;20204;-76
2023/05/09 00:11:49;;;;;;;31.83;20.15;;;14.40;99.90;;;;;;4999027;28;20235;-78
2023/05/09 00:14:17;;;;;;;32.08;19.40;;;14.40;99.90;;;;;;5015580;28;20203;-78
2023/05/09 00:16:44;;;;;;;30.90;20.52;;;14.40;99.90;;;;;;5014964;28;20235;-77
2023/05/09 00:19:11;;;;;;;37.15;22.23;;;14.40;99.90;;;;;;5015493;28;20207;-77
2023/05/09 00:21:40;;;;;;;31.42;20.80;;;14.40;99.90;;;;;;5016095;28;20200;-77
2023/05/09 00:24:07;;;;;;;32.60;20.77;;;14.40;99.90;;;;;;5015191;28;20203;-77
2023/05/09 00:26:34;;;;;;;39.90;23.98;;;14.40;99.90;;;;;;5015221;28;20216;-78
2023/05/09 00:29:00;;;;;;;34.22;23.58;;;14.40;99.90;;;;;;5015940;28;20203;-77
2023/05/09 00:31:28;;;;;;;39.10;24.75;;;14.50;99.90;;;;;;5015058;28;20223;-77
2023/05/09 00:33:55;;;;;;;35.00;23.80;;;14.50;99.90;;;;;;5015084;28;20203;-76
2023/05/09 00:36:22;;;;;;;38.78;25.00;;;14.50;99.90;;;;;;5015602;28;20302;-78
2023/05/09 00:38:50;;;;;;;41.80;25.65;;;14.50;99.90;;;;;;5006263;28;20512;-76
2023/05/09 00:41:17;;;;;;;39.55;26.50;;;14.50;99.90;;;;;;4995588;28;20203;-77
2023/05/09 00:43:44;;;;;;;39.95;26.13;;;14.50;99.90;;;;;;5014073;28;20519;-76
2023/05/09 00:46:11;;;;;;;46.95;29.35;;;14.50;99.90;;;;;;5015487;28;20618;-78
2023/05/09 00:48:38;;;;;;;44.63;28.98;;;14.50;99.90;;;;;;5014164;28;20203;-77
2023/05/09 00:51:05;;;;;;;51.97;30.20;;;14.50;99.90;;;;;;5020449;22;20636;-76
2023/05/09 00:53:32;;;;;;;43.78;29.35;;;14.50;99.90;;;;;;4995787;28;20206;-75
2023/05/09 00:56:02;;;;;;;53.70;31.45;;;14.50;99.90;;;;;;4994413;28;20233;-77
2023/05/09 00:58:30;;;;;;;47.13;29.27;;;14.50;99.90;;;;;;4995543;28;20311;-77
2023/05/09 01:00:57;;;;;;;50.00;32.10;;;14.50;99.90;;;;;;4995495;28;20291;-77
2023/05/09 01:03:24;;;;;;;50.15;30.58;;;14.50;99.90;;;;;;4994143;28;20234;-77
2023/05/09 01:05:56;;;;;;;46.63;30.52;;;14.50;99.90;;;;;;4995725;28;20195;-78
2023/05/09 01:08:37;;;;;;;41.60;27.73;;;14.50;99.90;;;;;;4994878;28;20188;-77
2023/05/09 01:11:10;;;;;;;47.75;31.13;;;14.50;99.90;;;;;;4995636;28;20491;-78
2023/05/09 01:13:44;;;;;;;49.42;30.02;;;14.50;99.90;;;;;;4994552;28;20299;-76
2023/05/09 01:16:16;;;;;;;50.17;31.67;;;14.50;99.90;;;;;;4994611;28;20307;-77
2023/05/09 01:18:47;;;;;;;50.80;31.92;;;14.50;99.90;;;;;;4994345;28;20279;-77
2023/05/09 01:21:20;;;;;;;51.67;34.20;;;14.50;99.90;;;;;;4975566;28;20197;-77
2023/05/09 01:24:11;;;;;;;54.63;35.15;;;14.60;99.90;;;;;;4975308;28;20224;-76
2023/05/09 01:26:46;;;;;;;51.25;33.33;;;14.50;99.90;;;;;;4979347;28;20218;-77
2023/05/09 01:29:34;;;;;;;51.92;33.58;;;14.50;99.90;;;;;;4995073;28;20262;-76
2023/05/09 01:32:04;;;;;;;52.25;33.70;;;14.50;99.90;;;;;;4995287;28;20188;-75
2023/05/09 01:34:33;;;;;;;51.75;33.78;;;14.60;99.90;;;;;;4994751;28;20204;-76
2023/05/09 01:37:01;;;;;;;45.40;30.83;;;14.60;99.90;;;;;;4992985;28;20239;-77
2023/05/09 01:39:30;;;;;;;55.15;37.25;;;14.60;99.90;;;;;;4995132;28;20211;-76
2023/05/09 01:41:59;;;;;;;53.33;34.00;;;14.60;99.90;;;;;;4993788;28;20196;-77
2023/05/09 01:44:32;;;;;;;51.35;33.60;;;14.60;99.90;;;;;;4994503;28;20208;-77
2023/05/09 01:47:00;;;;;;;62.97;36.60;;;14.60;99.90;;;;;;4976430;28;20228;-76
2023/05/09 01:49:30;;;;;;;53.38;34.92;;;14.60;99.90;;;;;;4975590;28;20217;-76
2023/05/09 01:51:59;;;;;;;56.22;37.15;;;14.60;99.90;;;;;;4974482;28;20671;-76
2023/05/09 01:54:27;;;;;;;55.45;35.30;;;14.60;99.90;;;;;;4983574;28;20210;-76
2023/05/09 01:56:55;;;;;;;49.50;33.92;;;14.60;99.90;;;;;;4994724;28;20220;-76
2023/05/09 01:59:23;;;;;;;56.78;37.03;;;14.60;99.90;;;;;;4994125;28;20570;-78
2023/05/09 02:01:53;;;;;;;58.20;38.00;;;14.60;99.90;;;;;;4993691;28;20648;-77
2023/05/09 02:04:21;;;;;;;57.33;37.03;;;14.60;99.90;;;;;;4994641;28;20596;-78
2023/05/09 02:06:50;;;;;;;60.05;37.70;;;14.60;99.90;;;;;;4993287;28;20203;-76
2023/05/09 02:09:18;;;;;;;53.25;34.60;;;14.60;99.90;;;;;;4994403;28;20597;-78
2023/05/09 02:11:45;;;;;;;60.63;38.20;;;14.60;99.90;;;;;;4993865;28;20207;-76
2023/05/09 02:14:12;;;;;;;52.10;35.22;;;14.60;99.90;;;;;;4993416;28;20241;-77
2023/05/09 02:16:39;;;;;;;51.92;36.20;;;14.60;99.90;;;;;;4994488;28;20318;-76
2023/05/09 02:19:07;;;;;;;56.53;37.55;;;14.60;99.90;;;;;;4993966;28;20196;-76
2023/05/09 02:21:34;;;;;;;51.85;35.53;;;14.60;99.90;;;;;;4993640;28;20659;-77
2023/05/09 02:24:01;;;;;;;51.63;34.72;;;14.60;99.90;;;;;;4977674;28;20530;-78
2023/05/09 02:26:29;;;;;;;50.65;33.45;;;14.60;99.90;;;;;;4974100;28;20283;-78
2023/05/09 02:28:57;;;;;;;58.00;36.08;;;14.60;99.90;;;;;;4975173;28;20264;-77
2023/05/09 02:31:27;;;;;;;48.13;34.35;;;14.60;99.90;;;;;;4974820;28;20201;-77
2023/05/09 02:33:54;;;;;;;49.35;34.13;;;14.60;99.90;;;;;;4987564;28;20460;-77
2023/05/09 02:36:24;;;;;;;52.15;33.78;;;14.60;99.90;;;;;;4993186;28;20232;-76
2023/05/09 02:38:51;;;;;;;50.17;35.10;;;14.60;99.90;;;;;;4974485;28;20249;-78
2023/05/09 02:41:18;;;;;;;54.35;36.05;;;14.60;99.90;;;;;;4974029;28;20207;-76
2023/05/09 02:43:45;;;;;;;56.00;37.33;;;14.60;99.90;;;;;;4974509;28;20662;-76
2023/05/09 02:46:12;;;;;;;53.33;35.60;;;14.60;99.90;;;;;;4981333;28;20208;-77
2023/05/09 02:48:39;;;;;;;55.30;34.67;;;14.60;99.90;;;;;;4993355;28;20210;-77
2023/05/09 02:51:06;;;;;;;50.85;33.40;;;14.60;99.90;;;;;;4992550;28;20517;-76
2023/05/09 02:53:34;;;;;;;52.22;34.70;;;14.60;99.90;;;;;;4993683;28;20511;-77
2023/05/09 02:56:01;;;;;;;47.97;33.70;;;14.60;99.90;;;;;;4992874;28;20223;-77
2023/05/09 02:58:28;;;;;;;50.50;33.90;;;14.60;99.90;;;;;;4993274;28;20251;-77
2023/05/09 03:00:55;;;;;;;48.40;32.25;;;14.60;99.90;;;;;;4993383;28;20291;-77
2023/05/09 03:03:22;;;;;;;52.00;32.53;;;14.60;99.90;;;;;;4993730;28;20207;-78
2023/05/09 03:05:49;;;;;;;45.50;31.40;;;14.50;99.90;;;;;;4992956;28;20192;-77
2023/05/09 03:08:15;;;;;;;45.75;32.35;;;14.50;99.90;;;;;;4973416;28;20208;-81
2023/05/09 03:10:44;;;;;;;43.50;29.67;;;14.50;99.90;;;;;;4980863;28;20212;-77
2023/05/09 03:13:10;;;;;;;42.47;29.23;;;14.50;99.90;;;;;;4993658;28;20204;-78
2023/05/09 03:15:37;;;;;;;46.97;31.45;;;14.50;99.90;;;;;;4992471;28;20282;-77
2023/05/09 03:18:04;;;;;;;44.22;28.83;;;14.50;99.90;;;;;;4991915;28;20534;-77
2023/05/09 03:20:31;;;;;;;45.28;30.63;;;14.50;99.90;;;;;;4992592;28;20571;-77
2023/05/09 03:22:58;;;;;;;39.03;28.27;;;14.50;99.90;;;;;;4973422;28;20307;-77
2023/05/09 03:25:26;;;;;;;43.30;29.00;;;14.50;99.90;;;;;;4973879;28;20267;-77
2023/05/09 03:27:54;;;;;;;43.78;28.55;;;14.50;99.90;;;;;;4973860;28;20200;-77
2023/05/09 03:30:21;;;;;;;45.40;29.15;;;14.50;99.90;;;;;;4973224;28;20291;-77
2023/05/09 03:32:48;;;;;;;37.53;27.45;;;14.40;99.90;;;;;;4995071;28;20242;-77
2023/05/09 03:35:14;;;;;;;41.28;27.73;;;14.40;99.90;;;;;;4996240;28;20207;-77
2023/05/09 03:37:41;;;;;;;41.63;28.10;;;14.50;99.90;;;;;;4996348;28;20255;-77
2023/05/09 03:40:09;;;;;;;42.35;27.17;;;14.50;99.90;;;;;;4997069;28;20200;-78
2023/05/09 03:42:36;;;;;;;34.55;26.75;;;14.50;99.90;;;;;;4996991;28;20247;-77
2023/05/09 03:45:05;;;;;;;37.80;27.05;;;14.50;99.90;;;;;;4995430;28;20211;-77
2023/05/09 03:47:32;;;;;;;37.83;27.15;;;14.50;99.90;;;;;;4997371;28;20202;-77
2023/05/09 03:49:59;;;;;;;36.05;25.08;;;14.40;99.90;;;;;;4996171;28;20208;-77
2023/05/09 03:52:25;;;;;;;42.78;29.42;;;14.50;99.90;;;;;;4996115;28;20675;-77
2023/05/09 03:54:52;;;;;;;42.38;27.98;;;14.50;99.90;;;;;;4996846;28;20552;-77
2023/05/09 03:57:19;;;;;;;37.75;27.23;;;14.40;99.90;;;;;;4995516;28;20658;-77
2023/05/09 03:59:46;;;;;;;40.35;27.70;;;14.50;99.90;;;;;;4996044;28;20650;-76
2023/05/09 04:02:14;;;;;;;44.10;29.52;;;14.50;99.90;;;;;;4996748;28;20492;-76
2023/05/09 04:04:41;;;;;;;42.13;29.08;;;14.50;99.90;;;;;;4996220;28;20239;-77
2023/05/09 04:07:08;;;;;;;44.97;28.60;;;14.50;99.90;;;;;;4996811;28;20196;-77
2023/05/09 04:09:35;;;;;;;41.28;29.33;;;14.50;99.90;;;;;;4995441;28;20793;-77
2023/05/09 04:12:02;;;;;;;42.85;29.58;;;14.50;99.90;;;;;;4996305;28;20204;-77
2023/05/09 04:14:30;;;;;;;44.33;29.95;;;14.50;99.90;;;;;;4996539;28;20207;-76
2023/05/09 04:16:57;;;;;;;40.15;27.92;;;14.50;99.90;;;;;;4995527;28;20439;-77
2023/05/09 04:19:25;;;;;;;44.33;29.77;;;14.50;99.90;;;;;;4996073;28;20203;-76
2023/05/09 04:21:52;;;;;;;37.72;27.05;;;14.50;99.90;;;;;;4996632;28;20204;-78
2023/05/09 04:24:19;;;;;;;37.75;27.33;;;14.50;99.90;;;;;;4996149;28;20307;-77
2023/05/09 04:26:46;;;;;;;37.75;28.25;;;14.40;99.90;;;;;;4987439;28;20200;-77
2023/05/09 04:29:13;;;;;;;35.67;27.45;;;14.40;99.90;;;;;;4976817;28;20196;-76
2023/05/09 04:31:40;;;;;;;43.05;29.08;;;14.50;99.90;;;;;;4977106;28;20208;-76
2023/05/09 04:34:06;;;;;;;35.97;26.42;;;14.50;99.90;;;;;;4992240;28;20232;-76
2023/05/09 04:36:35;;;;;;;39.92;27.67;;;14.50;99.90;;;;;;4996006;28;20215;-77
2023/05/09 04:39:03;;;;;;;36.88;27.33;;;14.50;99.90;;;;;;4996061;28;20215;-76
2023/05/09 04:41:31;;;;;;;34.95;26.02;;;14.50;99.90;;;;;;4995530;28;20266;-76
2023/05/09 04:43:58;;;;;;;41.40;27.77;;;14.50;99.90;;;;;;4986418;28;20215;-77
2023/05/09 04:46:25;;;;;;;32.70;26.50;;;14.50;99.90;;;;;;4976040;28;20197;-77
2023/05/09 04:48:51;;;;;;;34.67;25.17;;;14.50;99.90;;;;;;4984578;28;20529;-77
2023/05/09 04:51:18;;;;;;;32.22;25.30;;;14.50;99.90;;;;;;4995746;28;20658;-76
2023/05/09 04:53:47;;;;;;;31.50;24.17;;;14.50;99.90;;;;;;4995459;28;20199;-77
2023/05/09 04:56:14;;;;;;;35.72;23.02;;;14.50;99.90;;;;;;4996028;28;20559;-77
2023/05/09 04:58:40;;;;;;;30.92;23.45;;;14.50;99.90;;;;;;4994805;28;20314;-77
2023/05/09 05:01:08;;;;;;;30.92;22.55;;;14.60;99.90;;;;;;4995479;28;20299;-77
2023/05/09 05:03:34;;;;;;;28.40;23.17;;;14.60;99.90;;;;;;4995998;28;20200;-76
2023/05/09 05:06:01;;;;;;;31.35;23.38;;;14.60;99.90;;;;;;4994765;28;20628;-78
2023/05/09 05:08:28;;;;;;;32.40;22.58;;;14.50;99.90;;;;;;4995074;28;20200;-76
2023/05/09 05:10:57;;;;;;;34.55;25.05;;;14.60;99.90;;;;;;4994975;28;20290;-76
2023/05/09 05:13:23;;;;;;;35.93;24.97;;;14.60;99.90;;;;;;4995599;28;20196;-76
2023/05/09 05:15:51;;;;;;;30.97;24.83;;;14.50;99.90;;;;;;4994712;28;20204;-77
2023/05/09 05:18:17;;;;;;;36.55;25.52;;;14.50;99.90;;;;;;4995533;28;20223;-77
2023/05/09 05:20:44;;;;;;;30.25;23.33;;;14.50;99.90;;;;;;4987032;28;20625;-77
2023/05/09 05:23:11;;;;;;;29.55;23.15;;;14.50;99.90;;;;;;4975665;28;20234;-76
2023/05/09 05:25:39;;;;;;;32.72;23.88;;;14.50;99.90;;;;;;4976059;28;20226;-76
2023/05/09 05:28:07;;;;;;;29.50;21.98;;;14.50;99.90;;;;;;4976766;28;20295;-77
2023/05/09 05:30:34;;;;;;;29.55;22.00;;;14.60;99.90;;;;;;4994931;28;20511;-79
2023/05/09 05:33:01;;;;;;;27.77;20.38;;;14.60;99.90;;;;;;4995575;28;20192;-79
2023/05/09 05:35:28;;;;;;;30.23;20.10;;;14.60;99.90;;;;;;4995632;28;20227;-78
2023/05/09 05:37:55;;;;;;;27.60;20.23;;;14.60;99.90;;;;;;4981176;28;20231;-78
2023/05/09 05:40:22;;;;;;;26.90;21.30;;;14.60;99.90;;;;;;4976184;28;20316;-78
2023/05/09 05:42:48;;;;;;;27.88;20.52;;;14.50;99.90;;;;;;4975226;28;20221;-78
2023/05/09 05:45:17;;;;;;;32.13;21.13;;;14.50;99.90;;;;;;4975598;28;20647;-78
2023/05/09 05:47:44;;;;;;;34.67;22.98;;;14.50;99.90;;;;;;4975507;28;20203;-77
2023/05/09 05:50:11;;;;;;;28.90;20.05;;;14.50;99.90;;;;;;4975108;28;20204;-76
2023/05/09 05:52:38;;;;;;;25.47;20.23;;;14.50;99.90;;;;;;4975410;28;20259;-77
2023/05/09 05:55:06;;;;;;;31.25;22.27;;;14.50;99.90;;;;;;4975048;28;20204;-77
2023/05/09 05:57:33;;;;;;;29.13;20.48;;;14.50;99.90;;;;;;4974536;28;20629;-77
2023/05/09 06:00:00;;;;;;;25.20;20.15;;;14.50;99.90;;;;;;4975704;28;20208;-77
2023/05/09 06:02:28;;;;;;;27.92;20.80;;;14.50;99.90;;;;;;4982501;28;20210;-77
2023/05/09 06:04:55;;;;;;;24.98;19.30;;;14.40;99.90;;;;;;4994093;28;20243;-77
2023/05/09 06:07:22;;;;;;;26.40;20.53;;;14.40;99.90;;;;;;4994136;28;20212;-76
2023/05/09 06:09:49;;;;;;;24.10;19.48;;;14.40;99.90;;;;;;4994719;28;20235;-77
2023/05/09 06:12:16;;;;;;;26.58;20.58;;;14.50;99.90;;;;;;4993106;28;20598;-75
2023/05/09 06:14:43;;;;;;;27.27;20.20;;;14.40;99.90;;;;;;4994617;28;20207;-75
2023/05/09 06:17:09;;;;;;;29.83;20.88;;;14.50;99.90;;;;;;4994266;28;20219;-76
2023/05/09 06:19:38;;;;;;;29.23;21.63;;;14.50;99.90;;;;;;4994061;28;20192;-75
2023/05/09 06:22:04;;;;;;;27.15;21.30;;;14.40;99.90;;;;;;4993548;28;20210;-76
2023/05/09 06:24:31;;;;;;;32.13;21.58;;;14.40;99.90;;;;;;4994286;28;20200;-76
2023/05/09 06:26:58;;;;;;;27.33;21.13;;;14.40;99.90;;;;;;4994235;28;20400;-77
2023/05/09 06:29:25;;;;;;;27.73;21.45;;;14.40;99.90;;;;;;4993270;28;21010;-76
2023/05/09 06:31:52;;;;;;;24.77;20.50;;;14.50;99.90;;;;;;4993280;28;20203;-78
2023/05/09 06:34:19;;;;;;;26.95;21.20;;;14.50;99.90;;;;;;4994056;28;20204;-78
2023/05/09 06:36:47;;;;;;;27.67;21.83;;;14.50;99.90;;;;;;4992959;28;20208;-79
2023/05/09 06:39:14;;;;;;;29.15;21.10;;;14.50;99.90;;;;;;4993283;28;20311;-80
2023/05/09 06:41:41;;;;;;;30.50;21.38;;;14.40;99.90;;;;;;4993937;28;20609;-79
2023/05/09 06:44:08;;;;;;;26.77;21.57;;;14.40;99.90;;;;;;4993695;28;20640;-79
2023/05/09 06:46:34;;;;;;;30.42;22.65;;;14.50;99.90;;;;;;4976618;28;20208;-80
2023/05/09 06:49:01;;;;;;;32.33;22.27;;;14.50;99.90;;;;;;4974445;28;20292;-77
2023/05/09 06:51:28;;;;;;;30.08;21.90;;;14.50;99.90;;;;;;4974549;28;20663;-75
2023/05/09 06:53:56;;;;;;;30.60;22.30;;;14.50;99.90;;;;;;4974102;28;20204;-78
2023/05/09 06:56:25;;;;;;;30.47;21.83;;;14.50;99.90;;;;;;4977455;28;20278;-77
2023/05/09 06:58:52;;;;;;;27.17;20.77;;;14.50;99.90;;;;;;4993720;28;20479;-78
2023/05/09 07:01:19;;;;;;;35.22;22.38;;;14.50;99.90;;;;;;4981954;28;20513;-76
2023/05/09 07:03:46;;;;;;;30.98;22.55;;;14.50;99.90;;;;;;4974722;28;20200;-77
2023/05/09 07:06:13;;;;;;;30.15;22.92;;;14.50;99.90;;;;;;4988303;28;20204;-75
2023/05/09 07:08:40;;;;;;;29.13;22.92;;;14.50;99.90;;;;;;4992243;28;20218;-76
2023/05/09 07:11:09;;;;;;;31.07;23.07;;;14.50;99.90;;;;;;4993839;28;20227;-76
2023/05/09 07:13:35;;;;;;;28.95;22.05;;;14.50;99.90;;;;;;4993664;28;20220;-76
2023/05/09 07:16:02;;;;;;;30.63;22.75;;;14.60;99.90;;;;;;4993619;28;20208;-77
2023/05/09 07:18:29;;;;;;;32.25;23.75;;;14.60;99.90;;;;;;4992965;28;20232;-77
2023/05/09 07:20:56;;;;;;;31.13;22.90;;;14.60;99.90;;;;;;4993515;28;20687;-76
2023/05/09 07:23:24;;;;;;;28.90;21.00;;;14.60;99.90;;;;;;4980846;28;20263;-76
2023/05/09 07:25:56;;;;;;;25.75;19.92;;;14.60;99.90;;;;;;4974210;28;20289;-77
2023/05/09 07:28:25;;;;;;;24.60;18.35;;;14.60;99.90;;;;;;4973781;28;20537;-76
2023/05/09 07:30:52;;;;;;;22.40;17.77;;;14.60;99.90;;;;;;4974461;28;20296;-76
2023/05/09 07:33:19;;;;;;;20.02;17.20;;;14.60;99.90;;;;;;4990572;28;20214;-76
2023/05/09 07:35:46;;;;;;;21.42;16.52;;;14.60;99.90;;;;;;4992039;28;20211;-77
2023/05/09 07:38:13;;;;;;;20.80;15.70;;;14.60;99.90;;;;;;4993594;28;20592;-75
2023/05/09 07:40:40;;;;;;;18.90;15.15;;;14.60;99.90;;;;;;4993576;28;20192;-76
2023/05/09 07:43:07;;;;;;;20.92;15.00;;;14.60;99.90;;;;;;4993056;28;20287;-76
2023/05/09 07:45:35;;;;;;;20.83;15.27;;;14.60;99.90;;;;;;4992582;28;20317;-76
2023/05/09 07:48:02;;;;;;;19.35;14.43;;;14.60;99.90;;;;;;4993871;28;20199;-77
2023/05/09 07:50:29;;;;;;;18.67;13.88;;;14.60;99.90;;;;;;4993093;28;20200;-77
2023/05/09 07:52:56;;;;;;;18.27;13.85;;;14.60;99.90;;;;;;4993167;28;20231;-76
2023/05/09 07:55:23;;;;;;;17.58;13.93;;;14.60;99.90;;;;;;4977606;28;20217;-78
2023/05/09 07:57:49;;;;;;;13.35;11.50;;;14.60;99.90;;;;;;4975916;28;20258;-79
2023/05/09 08:00:22;;;;;;;17.52;12.73;;;14.70;99.90;;;;;;4993489;28;20207;-80
2023/05/09 08:02:50;;;;;;;16.70;13.52;;;14.70;99.90;;;;;;4992373;28;20616;-77
2023/05/09 08:05:18;;;;;;;27.80;15.15;;;14.70;99.90;;;;;;4993095;28;20204;-77
2023/05/09 08:07:45;;;;;;;14.82;12.70;;;14.70;99.90;;;;;;4992897;28;20200;-77
2023/05/09 08:10:12;;;;;;;18.88;13.70;;;14.70;99.90;;;;;;4993508;28;20258;-78
2023/05/09 08:12:39;;;;;;;13.77;10.43;;;14.70;99.90;;;;;;4977535;28;20208;-77
2023/05/09 08:15:07;;;;;;;17.85;12.05;;;14.60;99.90;;;;;;4975540;28;20207;-77
2023/05/09 08:17:34;;;;;;;13.15;10.32;;;14.70;99.90;;;;;;4992772;28;20200;-77
2023/05/09 08:20:04;;;;;;;12.82;10.52;;;14.70;99.90;;;;;;4996780;28;20211;-79
2023/05/09 08:22:31;;;;;;;12.23;10.45;;;14.70;99.90;;;;;;4996798;28;20215;-77
2023/05/09 08:24:58;;;;;;;12.35;9.70;;;14.70;99.90;;;;;;4996174;28;20659;-79
2023/05/09 08:27:25;;;;;;;11.23;9.27;;;14.70;99.90;;;;;;4996240;28;20204;-79
2023/05/09 08:29:52;;;;;;;14.13;8.52;;;14.80;99.90;;;;;;4996844;28;20226;-77
2023/05/09 08:32:19;;;;;;;10.55;8.65;;;14.70;99.90;;;;;;4995960;28;20266;-78
2023/05/09 08:34:46;;;;;;;10.20;7.95;;;14.60;99.90;;;;;;4992855;28;20204;-77
2023/05/09 08:37:14;;;;;;;10.23;8.38;;;14.60;99.90;;;;;;4977165;28;20235;-76
2023/05/09 08:39:41;;;;;;;10.25;8.27;;;14.70;99.90;;;;;;4991348;28;20398;-76
2023/05/09 08:42:09;;;;;;;9.45;7.97;;;14.70;99.90;;;;;;4994409;28;20646;-78
2023/05/09 08:44:36;;;;;;;9.25;7.25;;;14.70;99.90;;;;;;4977051;28;20224;-80
2023/05/09 08:47:04;;;;;;;8.75;7.07;;;14.70;99.90;;;;;;4976465;28;20209;-77
2023/05/09 08:49:32;;;;;;;13.68;7.78;;;14.70;99.90;;;;;;4996491;28;20549;-79
2023/05/09 08:51:59;;;;;;;8.73;7.38;;;14.70;99.90;;;;;;4996259;28;20239;-80
2023/05/09 08:54:28;;;;;;;8.25;6.82;;;14.70;99.90;;;;;;4995762;28;20223;-79
2023/05/09 08:56:56;;;;;;;8.98;7.90;;;14.70;99.90;;;;;;4989378;28;20212;-78
2023/05/09 08:59:24;;;;;;;9.82;7.63;;;14.80;99.90;;;;;;4976445;28;20633;-79
2023/05/09 09:01:52;;;;;;;9.07;8.15;;;14.80;99.90;;;;;;4976256;28;20199;-79
2023/05/09 09:04:19;;;;;;;9.98;8.88;;;14.80;99.90;;;;;;4985510;28;20291;-79
2023/05/09 09:06:46;;;;;;;10.52;8.88;;;14.80;99.90;;;;;;4995566;28;20214;-80
2023/05/09 09:09:15;;;;;;;12.90;9.20;;;14.90;99.90;;;;;;4980848;28;20215;-78
2023/05/09 09:11:44;;;;;;;11.82;9.13;;;14.90;99.90;;;;;;4976528;28;20197;-79
2023/05/09 09:14:13;;;;;;;12.30;9.55;;;14.90;99.90;;;;;;4976287;28;20201;-78
2023/05/09 09:16:43;;;;;;;12.27;10.18;;;14.90;99.90;;;;;;4976394;28;20288;-79
2023/05/09 09:19:12;;;;;;;15.68;10.75;;;14.90;99.90;;;;;;4993782;28;20220;-78
2023/05/09 09:21:42;;;;;;;13.57;11.15;;;14.90;99.90;;;;;;4995138;28;20206;-80
2023/05/09 09:24:11;;;;;;;13.95;11.35;;;14.90;99.90;;;;;;4995894;28;20200;-80
2023/05/09 09:26:47;;;;;;;14.60;13.10;;;14.90;99.90;;;;;;4994942;28;20299;-77
2023/05/09 09:29:15;;;;;;;15.68;13.15;;;14.90;99.90;;;;;;4994651;28;20218;-79
2023/05/09 09:31:45;;;;;;;14.18;12.65;;;15.00;99.90;;;;;;4994032;28;20215;-78
2023/05/09 09:34:13;;;;;;;15.55;13.95;;;15.10;99.90;;;;;;4995286;28;20267;-79
2023/05/09 09:36:41;;;;;;;15.73;14.07;;;15.10;99.90;;;;;;4995169;28;20257;-80
2023/05/09 09:39:08;;;;;;;17.00;14.80;;;15.10;99.90;;;;;;4994754;28;20331;-76
2023/05/09 09:41:36;;;;;;;17.63;15.38;;;15.10;99.90;;;;;;4995411;28;20231;-78
2023/05/09 09:44:12;;;;;;;18.65;15.48;;;15.10;99.90;;;;;;4977752;28;20235;-79
2023/05/09 09:46:43;;;;;;;17.10;15.32;;;15.10;99.90;;;;;;4975450;28;20192;-78
2023/05/09 09:49:10;;;;;;;18.05;16.25;;;15.20;99.90;;;;;;4975100;28;20200;-79
2023/05/09 09:51:37;;;;;;;19.73;16.20;;;15.20;99.90;;;;;;4975917;28;20237;-79
2023/05/09 09:54:07;;;;;;;16.02;14.55;;;15.20;99.90;;;;;;4975568;28;20213;-77
2023/05/09 09:56:42;;;;;;;17.92;16.00;;;15.20;99.90;;;;;;4975254;28;20211;-80
2023/05/09 09:59:12;;;;;;;16.40;14.65;;;15.20;99.90;;;;;;4975175;28;20238;-81
2023/05/09 10:01:59;;;;;;;16.80;15.18;;;15.20;99.90;;;;;;4985687;28;20239;-80
2023/05/09 10:04:28;;;;;;;17.20;15.50;;;15.30;99.90;;;;;;4992485;28;20208;-81
2023/05/09 10:06:56;;;;;;;14.98;13.40;;;15.20;99.90;;;;;;4994187;28;20311;-79
2023/05/09 10:09:24;;;;;;;15.07;13.57;;;15.20;99.90;;;;;;4993251;28;20582;-80
2023/05/09 10:11:52;;;;;;;13.75;12.35;;;15.30;99.90;;;;;;4993321;28;20247;-80
2023/05/09 10:14:22;;;;;;;13.88;11.95;;;15.20;99.90;;;;;;4994342;28;20204;-81
2023/05/09 10:16:50;;;;;;;13.65;12.25;;;15.10;99.90;;;;;;4992944;28;20513;-81
2023/05/09 10:19:19;;;;;;;13.18;11.98;;;15.10;99.90;;;;;;4993471;28;20234;-79
2023/05/09 10:21:51;;;;;;;12.93;11.60;;;15.20;99.90;;;;;;4993984;28;20201;-79
2023/05/09 10:24:22;;;;;;;13.40;11.98;;;15.20;99.90;;;;;;4992749;28;20199;-78
2023/05/09 10:26:52;;;;;;;12.82;11.60;;;15.20;99.90;;;;;;4994124;28;20289;-79
2023/05/09 10:29:23;;;;;;;12.80;11.55;;;15.20;99.90;;;;;;4986306;28;20251;-79
2023/05/09 10:31:56;;;;;;;11.32;10.18;;;15.20;99.90;;;;;;4973981;28;20239;-80
2023/05/09 10:34:25;;;;;;;12.48;11.38;;;15.20;99.90;;;;;;4974964;28;20283;-79
2023/05/09 10:36:53;;;;;;;13.10;11.85;;;15.30;99.90;;;;;;4974452;28;20196;-80
2023/05/09 10:39:21;;;;;;;11.90;10.68;;;15.30;99.90;;;;;;4973970;28;20319;-80
2023/05/09 10:41:49;;;;;;;12.52;11.32;;;15.30;99.90;;;;;;4974213;28;20201;-78
2023/05/09 10:44:17;;;;;;;12.80;11.55;;;15.30;99.90;;;;;;4974334;28;20520;-77
2023/05/09 10:46:46;;;;;;;13.25;11.85;;;15.30;99.90;;;;;;4973642;28;20295;-79
2023/05/09 10:49:14;;;;;;;12.45;11.25;;;15.20;99.90;;;;;;4974741;28;20204;-79
2023/05/09 10:51:41;;;;;;;12.50;11.20;;;15.20;99.90;;;;;;4977886;28;20232;-77
2023/05/09 10:54:15;;;;;;;13.57;12.27;;;15.20;99.90;;;;;;4993810;28;20208;-77
2023/05/09 10:56:42;;;;;;;13.75;12.38;;;15.20;99.90;;;;;;4982164;28;20205;-80
2023/05/09 10:59:34;;;;;;;12.60;10.95;;;15.20;99.90;;;;;;4974303;28;20239;-79
2023/05/09 11:02:03;;;;;;;12.10;10.85;;;15.30;99.90;;;;;;4974754;28;20288;-79
2023/05/09 11:04:31;;;;;;;13.32;11.93;;;15.30;99.90;;;;;;4978747;28;20505;-80
2023/05/09 11:06:59;;;;;;;12.95;11.25;;;15.40;99.90;;;;;;4993246;28;20200;-78
2023/05/09 11:09:31;;;;;;;11.68;10.57;;;15.40;99.90;;;;;;4993916;28;20200;-77
2023/05/09 11:12:11;;;;;;;13.32;11.93;;;15.40;99.90;;;;;;4993835;28;20196;-78
2023/05/09 11:14:43;;;;;;;11.93;10.82;;;15.40;99.90;;;;;;4986776;28;20204;-78
2023/05/09 11:17:12;;;;;;;12.55;11.25;;;15.40;99.90;;;;;;4974282;28;20204;-77
2023/05/09 11:19:58;;;;;;;12.02;10.93;;;15.40;99.90;;;;;;4973954;28;20227;-79
2023/05/09 11:22:26;;;;;;;12.70;11.45;;;15.40;99.90;;;;;;4973596;28;20520;-78
2023/05/09 11:25:03;;;;;;;12.43;10.00;;;15.40;99.90;;;;;;4974339;28;20212;-79
2023/05/09 11:27:37;;;;;;;12.52;11.38;;;15.40;99.90;;;;;;4973717;28;20480;-78
2023/05/09 11:30:06;;;;;;;11.30;10.10;;;15.40;99.90;;;;;;4975019;28;20187;-78
2023/05/09 11:32:42;;;;;;;11.70;10.70;;;15.40;99.90;;;;;;4974070;28;20288;-78
2023/05/09 11:35:10;;;;;;;11.15;10.13;;;15.50;99.90;;;;;;4989392;28;20234;-78
2023/05/09 11:37:46;;;;;;;11.57;10.38;;;15.50;99.90;;;;;;4993612;28;20203;-78
2023/05/09 11:40:16;;;;;;;12.18;11.07;;;15.40;99.90;;;;;;4993866;28;20222;-77
2023/05/09 11:42:43;;;;;;;12.20;11.02;;;15.50;99.90;;;;;;4991675;28;20203;-80
2023/05/09 11:45:11;;;;;;;12.52;11.35;;;15.50;99.90;;;;;;4993804;28;20291;-77
2023/05/09 11:47:39;;;;;;;12.07;10.93;;;15.50;99.90;;;;;;4986366;28;20235;-79
2023/05/09 11:50:08;;;;;;;11.82;10.63;;;15.50;99.90;;;;;;4973321;28;20213;-78
2023/05/09 11:52:37;;;;;;;11.90;10.75;;;15.50;99.90;;;;;;4974026;28;20287;-78
2023/05/09 11:55:06;;;;;;;12.07;10.98;;;15.60;99.90;;;;;;4988024;28;20207;-78
2023/05/09 11:57:32;;;;;;;12.93;10.77;;;15.70;99.90;;;;;;4996560;28;20199;-78
2023/05/09 12:00:01;;;;;;;11.70;10.68;;;15.80;99.90;;;;;;4996848;28;20224;-78
2023/05/09 12:02:28;;;;;;;11.88;10.80;;;15.80;99.90;;;;;;4995956;28;20196;-77
2023/05/09 12:04:57;;;;;;;11.40;10.30;;;15.80;99.90;;;;;;4997263;28;20216;-79
2023/05/09 12:07:25;;;;;;;11.30;10.30;;;15.80;99.90;;;;;;4997031;28;20196;-79
2023/05/09 12:09:52;;;;;;;9.55;8.60;;;15.80;99.90;;;;;;4995236;28;20226;-77
2023/05/09 12:12:20;;;;;;;10.15;9.25;;;15.80;99.90;;;;;;4997106;28;20246;-78
2023/05/09 12:14:48;;;;;;;10.30;9.30;;;15.80;99.90;;;;;;4997039;28;20200;-79
2023/05/09 12:17:15;;;;;;;9.70;8.82;;;15.90;99.90;;;;;;4991489;28;20217;-77
2023/05/09 12:19:44;;;;;;;10.55;9.48;;;15.90;99.90;;;;;;4977103;28;20245;-79
2023/05/09 12:22:12;;;;;;;10.25;9.15;;;16.00;99.90;;;;;;4977305;28;20570;-79
2023/05/09 12:24:39;;;;;;;9.48;8.63;;;16.10;99.90;;;;;;4976737;28;20207;-79
2023/05/09 12:27:06;;;;;;;9.82;8.95;;;16.10;99.90;;;;;;4977415;28;20201;-78
2023/05/09 12:29:34;;;;;;;10.27;9.27;;;16.10;99.90;;;;;;4977164;28;20292;-78
2023/05/09 12:32:01;;;;;;;10.18;9.27;;;16.10;99.90;;;;;;4976677;28;20201;-79
2023/05/09 12:34:28;;;;;;;10.07;9.07;;;16.10;99.90;;;;;;4977238;28;20236;-78